Time;durP1;ratioP1;P1;durP2;ratioP2;P2;SDS_P1;SDS_P2;PMS_P1;PMS_P2;Temp;Humidity;BMP_temperature;BMP_pressure;BME280_temperature;BME280_humidity;BME280_pressure;Samples;Min_cycle;Max_cycle;Signal;HPM_P1;HPM_P2
2022/05/13 00:01:05;;;;;;;14.77;4.38;;;;;;;;;;5004439;28;20045;-83
2022/05/13 00:03:31;;;;;;;19.38;5.10;;;;;;;;;;5010709;28;20195;-82
2022/05/13 00:05:57;;;;;;;15.55;4.68;;;;;;;;;;5011352;28;20048;-82
2022/05/13 00:08:23;;;;;;;16.35;4.30;;;;;;;;;;5017984;28;20164;-81
2022/05/13 00:10:49;;;;;;;19.63;5.10;;;;;;;;;;5023040;28;20049;-82
2022/05/13 00:13:16;;;;;;;15.80;4.88;;;;;;;;;;5011111;28;20049;-81
2022/05/13 00:15:42;;;;;;;16.48;4.93;;;;;;;;;;5011219;28;20482;-81
2022/05/13 00:18:09;;;;;;;15.65;5.22;;;;;;;;;;5011621;28;20167;-82
2022/05/13 00:20:35;;;;;;;20.40;4.70;;;;;;;;;;5020373;28;20091;-82
2022/05/13 00:23:01;;;;;;;20.55;5.13;;;;;;;;;;5013596;28;20502;-83
2022/05/13 00:25:30;;;;;;;14.02;4.45;;;;;;;;;;5010338;28;20054;-82
2022/05/13 00:27:56;;;;;;;12.65;4.53;;;;;;;;;;5007032;28;20084;-82
2022/05/13 00:30:26;;;;;;;20.13;5.68;;;;;;;;;;5014769;28;20065;-82
2022/05/13 00:32:52;;;;;;;18.73;5.30;;;;;;;;;;5011183;28;20054;-82
2022/05/13 00:35:22;;;;;;;19.83;5.38;;;;;;;;;;5022111;28;20042;-82
2022/05/13 00:37:48;;;;;;;15.90;5.18;;;;;;;;;;5005705;28;20497;-84
2022/05/13 00:40:15;;;;;;;16.20;5.03;;;;;;;;;;5002398;28;20041;-82
2022/05/13 00:42:41;;;;;;;17.38;5.30;;;;;;;;;;5006742;28;20132;-82
2022/05/13 00:45:08;;;;;;;13.25;4.07;;;;;;;;;;5014267;28;20064;-82
2022/05/13 00:47:34;;;;;;;23.77;5.38;;;;;;;;;;5001933;28;20503;-84
2022/05/13 00:50:01;;;;;;;16.13;4.82;;;;;;;;;;5028887;28;20121;-83
2022/05/13 00:52:27;;;;;;;14.98;4.90;;;;;;;;;;5011798;28;20477;-82
2022/05/13 00:54:54;;;;;;;16.20;4.30;;;;;;;;;;5010670;28;20049;-82
2022/05/13 00:57:21;;;;;;;18.95;4.88;;;;;;;;;;5008347;28;20096;-83
2022/05/13 00:59:51;;;;;;;18.20;5.15;;;;;;;;;;4992098;28;20116;-83
2022/05/13 01:02:17;;;;;;;17.35;4.95;;;;;;;;;;5002068;28;20049;-82
2022/05/13 01:04:43;;;;;;;14.32;5.05;;;;;;;;;;5009881;28;20046;-82
2022/05/13 01:07:12;;;;;;;17.05;5.05;;;;;;;;;;5009977;28;20448;-82
2022/05/13 01:09:41;;;;;;;18.17;5.40;;;;;;;;;;5004613;28;20118;-82
2022/05/13 01:12:09;;;;;;;17.95;5.28;;;;;;;;;;5020407;28;20049;-83
2022/05/13 01:14:42;;;;;;;18.50;5.63;;;;;;;;;;5020518;28;20084;-83
2022/05/13 01:20:03;;;;;;;16.17;4.82;;;;;;;;;;5006953;28;20057;-82
2022/05/13 01:22:30;;;;;;;22.35;5.38;;;;;;;;;;5014745;28;20087;-82
2022/05/13 01:24:56;;;;;;;16.33;5.22;;;;;;;;;;5022944;28;20050;-82
2022/05/13 01:27:22;;;;;;;16.20;5.30;;;;;;;;;;5013377;28;20038;-83
2022/05/13 01:29:51;;;;;;;19.02;5.40;;;;;;;;;;5002679;28;20505;-82
2022/05/13 01:32:17;;;;;;;16.02;5.05;;;;;;;;;;5009346;28;20053;-82
2022/05/13 01:34:43;;;;;;;16.00;4.95;;;;;;;;;;5009453;28;20069;-82
2022/05/13 01:37:09;;;;;;;15.13;5.25;;;;;;;;;;5013919;28;20053;-82
2022/05/13 01:39:35;;;;;;;16.27;5.05;;;;;;;;;;5017161;28;20045;-82
2022/05/13 01:42:01;;;;;;;15.82;4.47;;;;;;;;;;5014793;28;20096;-82
2022/05/13 01:44:27;;;;;;;13.60;4.60;;;;;;;;;;5018015;28;21016;-82
2022/05/13 01:46:53;;;;;;;16.52;5.20;;;;;;;;;;5021124;28;20042;-82
2022/05/13 01:49:19;;;;;;;15.60;4.07;;;;;;;;;;5009430;28;20046;-84
2022/05/13 01:51:45;;;;;;;16.23;4.75;;;;;;;;;;5001589;28;20042;-82
2022/05/13 01:54:14;;;;;;;12.90;4.32;;;;;;;;;;5011359;28;20057;-82
2022/05/13 01:56:40;;;;;;;10.82;4.45;;;;;;;;;;5023052;28;20550;-82
2022/05/13 01:59:06;;;;;;;12.40;4.10;;;;;;;;;;4998503;28;20058;-84
2022/05/13 02:01:32;;;;;;;13.35;4.15;;;;;;;;;;5001148;28;20042;-82
2022/05/13 02:03:58;;;;;;;15.05;4.28;;;;;;;;;;5001418;28;20082;-82
2022/05/13 02:06:26;;;;;;;13.20;4.13;;;;;;;;;;5027052;28;20124;-82
2022/05/13 02:08:54;;;;;;;11.77;3.95;;;;;;;;;;5018525;28;20046;-82
2022/05/13 02:11:20;;;;;;;16.77;4.35;;;;;;;;;;5009981;28;20045;-85
2022/05/13 02:13:46;;;;;;;12.40;4.10;;;;;;;;;;5012014;28;20037;-83
2022/05/13 02:16:13;;;;;;;14.70;4.35;;;;;;;;;;5005506;28;20069;-82
2022/05/13 02:18:39;;;;;;;17.42;4.97;;;;;;;;;;5015923;28;20054;-82
2022/05/13 02:21:06;;;;;;;13.02;4.13;;;;;;;;;;5026305;28;20045;-83
2022/05/13 02:23:32;;;;;;;17.30;4.28;;;;;;;;;;5010226;28;20050;-82
2022/05/13 02:26:00;;;;;;;14.50;4.50;;;;;;;;;;5026012;28;20050;-82
2022/05/13 02:28:26;;;;;;;10.93;3.90;;;;;;;;;;5005801;28;20052;-81
2022/05/13 02:30:52;;;;;;;17.02;4.57;;;;;;;;;;5010650;28;20061;-82
2022/05/13 02:33:18;;;;;;;12.68;4.18;;;;;;;;;;5037821;28;20054;-83
2022/05/13 02:35:44;;;;;;;13.45;4.10;;;;;;;;;;5017076;28;20512;-83
2022/05/13 02:38:14;;;;;;;13.48;3.78;;;;;;;;;;5028611;28;20211;-81
2022/05/13 02:43:25;;;;;;;8.77;3.45;;;;;;;;;;4999795;28;20046;-84
2022/05/13 02:45:51;;;;;;;10.00;3.70;;;;;;;;;;5011691;28;20112;-82
2022/05/13 02:48:17;;;;;;;10.68;3.83;;;;;;;;;;5007176;28;20101;-83
2022/05/13 02:50:43;;;;;;;7.18;3.78;;;;;;;;;;5003731;28;20046;-81
2022/05/13 02:53:09;;;;;;;11.98;3.70;;;;;;;;;;4995168;28;20132;-82
2022/05/13 02:55:38;;;;;;;8.75;3.40;;;;;;;;;;5010894;28;20191;-84
2022/05/13 02:58:04;;;;;;;8.88;3.40;;;;;;;;;;4998090;28;20057;-83
2022/05/13 03:00:30;;;;;;;7.35;3.58;;;;;;;;;;4997456;28;20128;-84
2022/05/13 03:02:57;;;;;;;7.10;2.92;;;;;;;;;;4998563;28;20050;-82
2022/05/13 03:05:23;;;;;;;7.40;3.38;;;;;;;;;;4998937;28;20547;-83
2022/05/13 03:07:50;;;;;;;7.78;3.20;;;;;;;;;;5010447;28;20053;-84
2022/05/13 03:10:16;;;;;;;5.63;2.67;;;;;;;;;;5006474;28;20042;-84
2022/05/13 03:12:42;;;;;;;8.73;3.15;;;;;;;;;;5015674;28;20068;-82
2022/05/13 03:15:11;;;;;;;10.85;3.00;;;;;;;;;;5014692;28;20046;-83
2022/05/13 03:17:39;;;;;;;8.73;2.78;;;;;;;;;;5007114;28;20129;-84
2022/05/13 03:20:06;;;;;;;5.03;2.97;;;;;;;;;;5015764;28;20082;-84
2022/05/13 03:22:33;;;;;;;6.88;2.90;;;;;;;;;;5025444;28;20155;-84
2022/05/13 03:24:59;;;;;;;5.32;2.47;;;;;;;;;;5009419;28;20046;-83
2022/05/13 03:27:26;;;;;;;8.80;3.20;;;;;;;;;;5005382;28;20493;-84
2022/05/13 03:29:52;;;;;;;8.02;3.10;;;;;;;;;;5020225;28;20040;-84
2022/05/13 03:32:19;;;;;;;8.73;3.35;;;;;;;;;;5014389;28;20046;-83
2022/05/13 03:34:45;;;;;;;6.80;3.05;;;;;;;;;;5004102;28;20050;-84
2022/05/13 03:37:11;;;;;;;8.38;3.05;;;;;;;;;;5009402;28;20050;-82
2022/05/13 03:39:37;;;;;;;7.28;2.80;;;;;;;;;;5015075;28;20088;-85
2022/05/13 03:42:03;;;;;;;6.22;2.80;;;;;;;;;;5012694;28;20077;-82
2022/05/13 03:44:29;;;;;;;7.35;2.70;;;;;;;;;;5020954;28;20096;-82
2022/05/13 03:46:55;;;;;;;6.57;2.70;;;;;;;;;;5017373;28;20088;-83
2022/05/13 03:49:21;;;;;;;5.60;2.33;;;;;;;;;;5013070;28;20045;-82
2022/05/13 03:51:47;;;;;;;6.28;2.65;;;;;;;;;;5009870;28;20120;-83
2022/05/13 03:54:13;;;;;;;6.68;2.42;;;;;;;;;;5011970;28;20068;-82
2022/05/13 03:56:39;;;;;;;6.53;2.83;;;;;;;;;;5000877;28;20038;-83
2022/05/13 03:59:05;;;;;;;8.38;2.53;;;;;;;;;;5006794;28;20046;-85
2022/05/13 04:01:34;;;;;;;5.50;2.70;;;;;;;;;;5005529;28;20125;-83
2022/05/13 04:04:00;;;;;;;8.48;2.70;;;;;;;;;;5004904;28;20477;-85
2022/05/13 04:09:11;;;;;;;5.35;2.83;;;;;;;;;;5019031;28;20037;-85
2022/05/13 04:11:39;;;;;;;7.95;2.95;;;;;;;;;;5004667;28;20500;-83
2022/05/13 04:16:50;;;;;;;7.10;2.72;;;;;;;;;;5037593;28;20378;-85
2022/05/13 04:19:17;;;;;;;4.95;2.95;;;;;;;;;;5020563;28;20588;-83
2022/05/13 04:21:46;;;;;;;7.65;2.58;;;;;;;;;;5022896;28;20033;-83
2022/05/13 04:24:14;;;;;;;8.68;3.00;;;;;;;;;;5019113;28;20103;-84
2022/05/13 04:26:40;;;;;;;4.60;2.58;;;;;;;;;;5008918;28;20052;-83
2022/05/13 04:29:07;;;;;;;4.57;2.38;;;;;;;;;;5012303;28;20153;-83
2022/05/13 04:31:38;;;;;;;6.03;2.60;;;;;;;;;;5006126;28;20037;-82
2022/05/13 04:34:04;;;;;;;6.90;3.00;;;;;;;;;;5009325;28;20082;-82
2022/05/13 04:36:30;;;;;;;9.85;3.00;;;;;;;;;;5020617;28;20083;-86
2022/05/13 04:38:57;;;;;;;6.75;2.83;;;;;;;;;;5013612;28;20084;-84
2022/05/13 04:44:09;;;;;;;8.40;3.10;;;;;;;;;;5007857;28;20041;-85
2022/05/13 04:46:36;;;;;;;6.50;2.72;;;;;;;;;;5011127;28;20067;-82
2022/05/13 04:49:02;;;;;;;8.27;2.83;;;;;;;;;;5024341;28;20089;-85
2022/05/13 04:51:28;;;;;;;7.97;3.05;;;;;;;;;;5007669;28;20100;-83
2022/05/13 04:53:55;;;;;;;7.72;2.90;;;;;;;;;;5004445;28;20092;-82
2022/05/13 04:56:22;;;;;;;7.63;3.10;;;;;;;;;;5008042;28;20428;-85
2022/05/13 04:58:48;;;;;;;6.88;3.05;;;;;;;;;;5003525;28;20049;-85
2022/05/13 05:01:15;;;;;;;5.97;2.60;;;;;;;;;;5005402;28;20097;-83
2022/05/13 05:03:41;;;;;;;7.35;2.88;;;;;;;;;;5012046;28;20065;-85
2022/05/13 05:06:08;;;;;;;7.45;2.63;;;;;;;;;;5010011;28;20050;-85
2022/05/13 05:08:34;;;;;;;7.47;3.17;;;;;;;;;;4999688;28;20119;-82
2022/05/13 05:11:02;;;;;;;10.05;3.65;;;;;;;;;;5008462;28;20054;-84
2022/05/13 05:13:36;;;;;;;10.40;3.42;;;;;;;;;;5010962;28;20037;-85
2022/05/13 05:16:02;;;;;;;;;;;;;;;;;;5014633;28;20396;-82
2022/05/13 05:18:31;;;;;;;5.30;2.50;;;;;;;;;;5012757;28;19921;-82
2022/05/13 05:20:57;;;;;;;8.32;2.90;;;;;;;;;;5007880;28;20045;-83
2022/05/13 05:23:24;;;;;;;9.00;3.03;;;;;;;;;;5001494;28;20054;-83
2022/05/13 05:25:51;;;;;;;10.30;3.08;;;;;;;;;;5014401;28;20041;-83
2022/05/13 05:28:17;;;;;;;6.22;2.92;;;;;;;;;;5014847;28;20046;-82
2022/05/13 05:30:43;;;;;;;6.85;3.15;;;;;;;;;;5016928;28;20073;-83
2022/05/13 05:33:10;;;;;;;9.07;2.70;;;;;;;;;;5025542;28;20184;-85
2022/05/13 05:35:37;;;;;;;7.90;3.10;;;;;;;;;;5017366;28;20096;-84
2022/05/13 05:38:03;;;;;;;8.93;4.20;;;;;;;;;;5009530;28;20037;-84
2022/05/13 05:40:29;;;;;;;7.30;2.60;;;;;;;;;;5016535;28;20100;-83
2022/05/13 05:42:55;;;;;;;7.80;2.88;;;;;;;;;;5001073;28;20041;-83
2022/05/13 05:45:22;;;;;;;7.07;2.80;;;;;;;;;;5001681;28;20125;-83
2022/05/13 05:47:48;;;;;;;11.65;2.67;;;;;;;;;;5002153;28;20054;-82
2022/05/13 05:50:19;;;;;;;5.80;2.67;;;;;;;;;;4994807;28;20081;-81
2022/05/13 05:52:45;;;;;;;6.13;2.40;;;;;;;;;;5002551;28;20093;-84
2022/05/13 05:58:02;;;;;;;8.18;2.75;;;;;;;;;;5042513;28;20096;-85
2022/05/13 06:00:29;;;;;;;7.75;2.42;;;;;;;;;;5004396;28;20042;-82
2022/05/13 06:02:55;;;;;;;6.85;2.63;;;;;;;;;;5020687;28;20049;-83
2022/05/13 06:05:23;;;;;;;7.57;2.33;;;;;;;;;;4997219;28;20072;-85
2022/05/13 06:07:50;;;;;;;7.57;2.45;;;;;;;;;;5005859;28;20050;-84
2022/05/13 06:10:16;;;;;;;5.82;2.70;;;;;;;;;;5004582;28;20056;-83
2022/05/13 06:12:43;;;;;;;5.70;2.72;;;;;;;;;;5013034;28;20520;-83
2022/05/13 06:15:09;;;;;;;8.68;2.67;;;;;;;;;;5010994;28;20033;-83
2022/05/13 06:17:35;;;;;;;7.13;2.55;;;;;;;;;;5014822;28;20049;-82
2022/05/13 06:20:05;;;;;;;6.90;2.45;;;;;;;;;;5009750;28;20042;-86
2022/05/13 06:22:31;;;;;;;7.20;3.00;;;;;;;;;;5010093;28;20046;-84
2022/05/13 06:24:57;;;;;;;5.40;2.35;;;;;;;;;;4999152;28;20054;-83
2022/05/13 06:27:23;;;;;;;6.40;2.40;;;;;;;;;;4997378;28;20077;-82
2022/05/13 06:29:51;;;;;;;10.60;2.65;;;;;;;;;;5008276;28;20087;-85
2022/05/13 06:32:18;;;;;;;8.43;2.80;;;;;;;;;;5016845;28;20045;-85
2022/05/13 06:34:44;;;;;;;8.60;2.38;;;;;;;;;;5024303;28;20105;-84
2022/05/13 06:37:10;;;;;;;7.18;2.53;;;;;;;;;;5011197;28;20124;-86
2022/05/13 06:39:36;;;;;;;8.55;2.75;;;;;;;;;;5011317;28;20115;-85
2022/05/13 06:42:02;;;;;;;8.57;2.60;;;;;;;;;;5019200;28;20443;-82
2022/05/13 06:44:28;;;;;;;7.30;2.65;;;;;;;;;;5010134;28;20050;-84
2022/05/13 06:46:54;;;;;;;6.30;2.58;;;;;;;;;;5010772;28;20053;-83
2022/05/13 06:49:20;;;;;;;8.15;2.47;;;;;;;;;;5018981;28;20389;-82
2022/05/13 06:51:46;;;;;;;7.35;2.60;;;;;;;;;;4997936;28;20121;-84
2022/05/13 06:54:18;;;;;;;8.20;2.60;;;;;;;;;;5000666;28;20545;-85
2022/05/13 06:56:44;;;;;;;5.18;2.47;;;;;;;;;;5020223;28;20038;-82
2022/05/13 06:59:10;;;;;;;7.70;2.72;;;;;;;;;;5013517;28;20080;-82
2022/05/13 07:01:36;;;;;;;7.43;2.67;;;;;;;;;;5012999;28;20052;-82
2022/05/13 07:04:04;;;;;;;5.20;2.45;;;;;;;;;;5011920;28;20033;-83
2022/05/13 07:06:30;;;;;;;8.48;2.92;;;;;;;;;;5031077;28;20042;-85
2022/05/13 07:08:56;;;;;;;8.82;2.63;;;;;;;;;;5029066;28;20079;-84
2022/05/13 07:11:23;;;;;;;6.80;2.72;;;;;;;;;;5029830;28;20038;-84
2022/05/13 07:13:49;;;;;;;8.93;2.95;;;;;;;;;;5031531;28;20115;-83
2022/05/13 07:16:15;;;;;;;7.90;2.88;;;;;;;;;;5022382;28;20481;-83
2022/05/13 07:18:42;;;;;;;4.63;2.20;;;;;;;;;;5019606;28;20132;-88
2022/05/13 07:21:08;;;;;;;9.13;3.33;;;;;;;;;;5017766;28;20100;-84
2022/05/13 07:23:34;;;;;;;8.38;2.60;;;;;;;;;;5008142;28;20498;-84
2022/05/13 07:26:00;;;;;;;5.82;2.38;;;;;;;;;;5006050;28;20602;-83
2022/05/13 07:28:27;;;;;;;4.65;2.35;;;;;;;;;;5005204;28;20816;-82
2022/05/13 07:30:53;;;;;;;8.38;2.63;;;;;;;;;;5007992;28;20120;-83
2022/05/13 07:33:21;;;;;;;8.70;2.50;;;;;;;;;;5009989;28;20374;-85
2022/05/13 07:35:47;;;;;;;7.53;2.70;;;;;;;;;;4999809;28;20065;-83
2022/05/13 07:38:13;;;;;;;7.45;2.70;;;;;;;;;;5005412;28;20133;-83
2022/05/13 07:43:24;;;;;;;6.78;2.72;;;;;;;;;;5007459;28;20042;-83
2022/05/13 07:45:50;;;;;;;9.60;2.95;;;;;;;;;;5024851;28;20057;-86
2022/05/13 07:48:16;;;;;;;5.50;2.53;;;;;;;;;;5009511;28;20125;-83
2022/05/13 07:50:42;;;;;;;7.28;2.65;;;;;;;;;;5024388;28;20045;-84
2022/05/13 07:53:08;;;;;;;6.72;2.47;;;;;;;;;;5025678;28;20064;-86
2022/05/13 07:55:34;;;;;;;11.93;2.60;;;;;;;;;;5012431;28;20420;-85
2022/05/13 07:58:00;;;;;;;9.07;2.72;;;;;;;;;;5009593;28;20050;-84
2022/05/13 08:00:32;;;;;;;10.70;2.80;;;;;;;;;;5002153;28;20556;-83
2022/05/13 08:03:09;;;;;;;7.88;2.85;;;;;;;;;;5041324;28;20054;-84
2022/05/13 08:05:40;;;;;;;7.68;2.67;;;;;;;;;;5008396;28;20045;-87
2022/05/13 08:08:06;;;;;;;9.60;2.35;;;;;;;;;;5011136;28;20088;-83
2022/05/13 08:10:32;;;;;;;9.75;2.70;;;;;;;;;;5002580;28;20046;-84
2022/05/13 08:12:58;;;;;;;10.32;2.85;;;;;;;;;;5016783;28;20506;-85
2022/05/13 08:15:24;;;;;;;6.50;2.47;;;;;;;;;;5016733;28;20081;-83
2022/05/13 08:17:50;;;;;;;10.27;3.10;;;;;;;;;;5017775;28;20136;-85
2022/05/13 08:20:16;;;;;;;8.18;2.78;;;;;;;;;;5010370;28;20136;-84
2022/05/13 08:22:42;;;;;;;7.60;2.40;;;;;;;;;;5020608;28;20057;-83
2022/05/13 08:25:09;;;;;;;11.23;2.80;;;;;;;;;;5019027;28;20045;-83
2022/05/13 08:27:35;;;;;;;8.55;2.83;;;;;;;;;;5016023;28;20101;-84
2022/05/13 08:30:03;;;;;;;6.97;2.75;;;;;;;;;;5006020;28;20049;-84
2022/05/13 08:32:30;;;;;;;8.02;2.80;;;;;;;;;;5016513;28;20045;-84
2022/05/13 08:34:56;;;;;;;6.47;2.60;;;;;;;;;;5020758;28;20048;-85
2022/05/13 08:37:24;;;;;;;13.50;3.08;;;;;;;;;;5011778;28;20045;-85
2022/05/13 08:39:51;;;;;;;9.95;3.25;;;;;;;;;;5009070;28;20108;-83
2022/05/13 08:42:35;;;;;;;5.20;2.40;;;;;;;;;;5027304;28;20068;-86
2022/05/13 08:45:01;;;;;;;8.70;3.28;;;;;;;;;;5024290;28;20049;-85
2022/05/13 08:47:32;;;;;;;8.60;3.03;;;;;;;;;;4996843;28;20121;-83
2022/05/13 08:50:09;;;;;;;9.30;2.65;;;;;;;;;;5010553;28;20164;-86
2022/05/13 08:55:29;;;;;;;8.68;3.00;;;;;;;;;;5028248;28;20064;-84
2022/05/13 08:57:55;;;;;;;11.93;3.08;;;;;;;;;;5015667;28;20050;-85
2022/05/13 09:00:27;;;;;;;9.15;2.67;;;;;;;;;;5009701;28;20405;-85
2022/05/13 09:02:56;;;;;;;11.95;2.88;;;;;;;;;;4994014;28;20049;-84
2022/05/13 09:05:22;;;;;;;11.00;3.00;;;;;;;;;;5009191;28;20453;-85
2022/05/13 09:07:51;;;;;;;9.07;3.17;;;;;;;;;;5015879;28;20045;-85
2022/05/13 09:10:17;;;;;;;12.32;3.22;;;;;;;;;;5007832;28;20053;-83
2022/05/13 09:12:47;;;;;;;6.53;2.90;;;;;;;;;;5006173;28;20076;-83
2022/05/13 09:15:25;;;;;;;9.60;2.58;;;;;;;;;;5007205;28;20092;-87
2022/05/13 09:18:10;;;;;;;9.27;2.60;;;;;;;;;;5022378;28;20132;-83
2022/05/13 09:20:55;;;;;;;6.25;3.00;;;;;;;;;;5011208;28;20440;-87
2022/05/13 09:23:21;;;;;;;6.53;3.05;;;;;;;;;;5016921;28;20425;-83
2022/05/13 09:25:47;;;;;;;9.10;2.95;;;;;;;;;;5011179;28;20058;-83
2022/05/13 09:28:14;;;;;;;8.80;3.40;;;;;;;;;;5020438;28;20501;-83
2022/05/13 09:30:42;;;;;;;8.30;2.70;;;;;;;;;;5010825;28;20081;-83
2022/05/13 09:33:31;;;;;;;12.18;3.25;;;;;;;;;;5011179;28;20052;-83
2022/05/13 09:35:59;;;;;;;9.35;3.13;;;;;;;;;;5011871;28;20058;-86
2022/05/13 09:38:26;;;;;;;11.20;3.25;;;;;;;;;;5012290;28;20042;-83
2022/05/13 09:41:02;;;;;;;11.95;3.13;;;;;;;;;;5011499;28;20038;-84
2022/05/13 09:43:36;;;;;;;7.45;2.85;;;;;;;;;;5010983;28;20064;-83
2022/05/13 09:46:07;;;;;;;9.75;3.10;;;;;;;;;;5010122;28;20053;-84
2022/05/13 09:48:35;;;;;;;8.18;3.10;;;;;;;;;;5016312;28;20053;-85
2022/05/13 09:51:19;;;;;;;10.27;3.00;;;;;;;;;;4995579;28;20073;-84
2022/05/13 09:53:59;;;;;;;10.63;3.70;;;;;;;;;;5030265;28;20049;-87
2022/05/13 09:56:34;;;;;;;9.57;3.10;;;;;;;;;;5023302;28;20057;-87
2022/05/13 09:59:04;;;;;;;15.82;3.40;;;;;;;;;;5011346;28;20041;-87
2022/05/13 10:01:30;;;;;;;15.63;3.25;;;;;;;;;;5026282;28;20050;-86
2022/05/13 10:04:10;;;;;;;7.85;2.97;;;;;;;;;;5011768;28;20119;-86
2022/05/13 10:06:37;;;;;;;10.27;3.42;;;;;;;;;;5008430;28;20051;-88
2022/05/13 10:14:45;;;;;;;12.48;3.75;;;;;;;;;;4995391;28;20087;-87
2022/05/13 10:17:25;;;;;;;9.27;2.95;;;;;;;;;;5014735;28;20054;-89
2022/05/13 10:19:53;;;;;;;5.93;2.85;;;;;;;;;;5019714;28;20046;-87
2022/05/13 10:22:27;;;;;;;9.77;3.25;;;;;;;;;;5006681;28;20141;-87
2022/05/13 10:24:53;;;;;;;;;;;;;;;;;;5018213;28;20190;-88
2022/05/13 10:27:23;;;;;;;10.60;3.13;;;;;;;;;;5011587;28;20373;-86
2022/05/13 10:29:51;;;;;;;9.10;2.92;;;;;;;;;;5004929;28;20181;-86
2022/05/13 10:32:20;;;;;;;9.35;3.15;;;;;;;;;;5022868;28;20048;-85
2022/05/13 10:34:53;;;;;;;8.98;3.05;;;;;;;;;;5005383;28;20847;-85
2022/05/13 10:37:19;;;;;;;;;;;;;;;;;;5016424;28;20053;-85
2022/05/13 10:39:49;;;;;;;7.47;2.70;;;;;;;;;;5022131;28;19975;-86
2022/05/13 10:42:21;;;;;;;11.38;3.17;;;;;;;;;;5027396;28;20053;-84
2022/05/13 10:44:51;;;;;;;9.00;2.90;;;;;;;;;;5026620;28;20393;-87
2022/05/13 10:47:21;;;;;;;9.95;3.22;;;;;;;;;;5030183;28;20056;-87
2022/05/13 10:49:47;;;;;;;10.23;3.05;;;;;;;;;;5008831;28;20045;-87
2022/05/13 10:52:30;;;;;;;11.43;3.58;;;;;;;;;;5026718;28;20123;-83
2022/05/13 10:55:00;;;;;;;8.38;3.13;;;;;;;;;;5012338;28;20127;-86
2022/05/13 10:57:41;;;;;;;9.18;3.17;;;;;;;;;;5032856;28;20049;-84
2022/05/13 11:00:09;;;;;;;7.47;2.80;;;;;;;;;;5002263;28;20056;-84
2022/05/13 11:02:54;;;;;;;12.90;3.33;;;;;;;;;;5018115;28;20522;-85
2022/05/13 11:05:32;;;;;;;9.32;3.42;;;;;;;;;;5013695;28;20041;-84
2022/05/13 11:08:15;;;;;;;7.63;3.00;;;;;;;;;;5001213;28;20072;-84
2022/05/13 11:10:41;;;;;;;20.15;3.67;;;;;;;;;;5015942;28;20053;-86
2022/05/13 11:13:13;;;;;;;9.65;3.28;;;;;;;;;;5001641;28;20061;-84
2022/05/13 11:15:59;;;;;;;15.05;3.40;;;;;;;;;;4993790;28;20046;-82
2022/05/13 11:18:46;;;;;;;5.65;2.90;;;;;;;;;;5017486;28;20121;-85
2022/05/13 11:21:21;;;;;;;9.27;3.17;;;;;;;;;;4989544;28;20105;-83
2022/05/13 11:26:47;;;;;;;10.63;3.30;;;;;;;;;;5039259;28;20475;-83
2022/05/13 11:29:16;;;;;;;10.25;2.90;;;;;;;;;;5023056;28;20820;-84
2022/05/13 11:31:55;;;;;;;10.02;2.90;;;;;;;;;;5020505;28;20037;-84
2022/05/13 11:34:28;;;;;;;6.95;3.17;;;;;;;;;;5008855;28;20053;-83
2022/05/13 11:36:57;;;;;;;6.82;3.10;;;;;;;;;;4991959;28;20046;-84
2022/05/13 11:39:22;;;;;;;10.13;2.92;;;;;;;;;;4998065;28;20050;-84
2022/05/13 11:41:48;;;;;;;7.30;3.35;;;;;;;;;;5026552;28;20084;-84
2022/05/13 11:44:17;;;;;;;10.07;3.15;;;;;;;;;;5018112;28;20042;-87
2022/05/13 11:46:48;;;;;;;10.15;3.25;;;;;;;;;;5021737;28;20511;-86
2022/05/13 11:49:25;;;;;;;8.70;2.90;;;;;;;;;;5032062;28;20046;-83
2022/05/13 11:51:52;;;;;;;5.70;2.78;;;;;;;;;;5015204;28;20089;-84
2022/05/13 11:54:20;;;;;;;9.50;3.00;;;;;;;;;;5011656;28;20037;-85
2022/05/13 11:56:49;;;;;;;6.55;2.58;;;;;;;;;;5004157;28;20085;-85
2022/05/13 11:59:24;;;;;;;7.53;3.20;;;;;;;;;;5021340;28;20056;-85
2022/05/13 12:01:51;;;;;;;8.98;3.20;;;;;;;;;;5027109;28;20041;-86
2022/05/13 12:04:17;;;;;;;6.75;3.00;;;;;;;;;;5020952;28;20088;-83
2022/05/13 12:06:49;;;;;;;10.55;2.70;;;;;;;;;;5018192;28;20048;-86
2022/05/13 12:09:29;;;;;;;6.78;3.00;;;;;;;;;;5011611;28;20080;-85
2022/05/13 12:12:14;;;;;;;10.57;3.10;;;;;;;;;;5041703;28;20141;-81
2022/05/13 12:14:58;;;;;;;15.43;3.58;;;;;;;;;;4998723;28;20053;-81
2022/05/13 12:17:38;;;;;;;11.82;3.30;;;;;;;;;;5005926;28;20042;-81
2022/05/13 12:20:13;;;;;;;7.25;2.70;;;;;;;;;;5013323;28;20499;-81
2022/05/13 12:22:45;;;;;;;12.57;3.03;;;;;;;;;;5019594;28;20115;-81
2022/05/13 12:25:13;;;;;;;8.70;2.60;;;;;;;;;;5018446;28;20061;-81
2022/05/13 12:27:46;;;;;;;9.90;3.05;;;;;;;;;;5020701;28;20098;-80
2022/05/13 12:30:31;;;;;;;7.55;2.75;;;;;;;;;;5034052;28;20045;-83
2022/05/13 12:33:16;;;;;;;7.25;2.95;;;;;;;;;;5023035;28;20045;-81
2022/05/13 12:38:27;;;;;;;11.48;3.80;;;;;;;;;;5044635;28;20148;-81
2022/05/13 12:41:05;;;;;;;10.63;3.38;;;;;;;;;;5021318;28;20161;-80
2022/05/13 12:43:50;;;;;;;6.75;3.75;;;;;;;;;;5004040;28;20050;-81
2022/05/13 12:46:39;;;;;;;11.38;3.47;;;;;;;;;;5007525;28;20469;-82
2022/05/13 12:49:09;;;;;;;9.07;3.30;;;;;;;;;;5002728;28;20074;-81
2022/05/13 12:51:46;;;;;;;10.23;3.83;;;;;;;;;;5013876;28;20068;-81
2022/05/13 12:54:13;;;;;;;8.60;3.13;;;;;;;;;;5028045;28;20056;-81
2022/05/13 12:56:45;;;;;;;8.77;3.53;;;;;;;;;;5027370;28;20049;-81
2022/05/13 12:59:13;;;;;;;10.88;3.75;;;;;;;;;;5018105;28;20977;-80
2022/05/13 13:01:41;;;;;;;10.13;3.58;;;;;;;;;;5000077;28;20068;-83
2022/05/13 13:04:09;;;;;;;12.68;3.35;;;;;;;;;;5021658;28;20160;-81
2022/05/13 13:06:38;;;;;;;12.95;4.05;;;;;;;;;;5006653;28;20152;-82
2022/05/13 13:09:05;;;;;;;11.52;3.33;;;;;;;;;;5006679;28;20046;-81
2022/05/13 13:11:37;;;;;;;8.35;3.33;;;;;;;;;;5000343;28;20107;-80
2022/05/13 13:14:10;;;;;;;11.82;3.55;;;;;;;;;;5015324;28;20041;-83
2022/05/13 13:16:54;;;;;;;11.55;3.33;;;;;;;;;;5017633;28;20050;-83
2022/05/13 13:19:23;;;;;;;9.98;3.63;;;;;;;;;;5028790;28;20045;-86
2022/05/13 13:21:54;;;;;;;11.98;3.60;;;;;;;;;;5012973;28;20607;-81
2022/05/13 13:24:21;;;;;;;10.70;3.90;;;;;;;;;;5023931;28;20087;-80
2022/05/13 13:26:49;;;;;;;10.40;3.70;;;;;;;;;;5024936;28;20132;-81
2022/05/13 13:29:19;;;;;;;13.05;3.67;;;;;;;;;;5030512;28;20562;-81
2022/05/13 13:31:48;;;;;;;8.50;3.10;;;;;;;;;;4995342;28;20406;-82
2022/05/13 13:34:25;;;;;;;12.75;3.63;;;;;;;;;;5013041;28;20057;-81
2022/05/13 13:36:51;;;;;;;9.85;3.58;;;;;;;;;;5027364;28;20052;-81
2022/05/13 13:39:17;;;;;;;15.05;4.32;;;;;;;;;;5029072;28;20053;-82
2022/05/13 13:41:47;;;;;;;10.90;3.50;;;;;;;;;;5026240;28;20034;-81
2022/05/13 13:44:14;;;;;;;10.07;3.63;;;;;;;;;;5011230;28;20054;-81
2022/05/13 13:46:40;;;;;;;12.82;3.67;;;;;;;;;;5010252;28;20520;-83
2022/05/13 13:49:07;;;;;;;11.68;3.80;;;;;;;;;;5026285;28;20204;-81
2022/05/13 13:51:43;;;;;;;8.35;3.58;;;;;;;;;;5026784;28;20096;-80
2022/05/13 13:54:11;;;;;;;9.93;3.03;;;;;;;;;;5028866;28;20049;-80
2022/05/13 13:56:38;;;;;;;7.07;3.05;;;;;;;;;;5025339;28;20531;-80
2022/05/13 13:59:07;;;;;;;7.05;3.22;;;;;;;;;;5008627;28;20077;-80
2022/05/13 14:01:35;;;;;;;7.97;3.20;;;;;;;;;;5010907;28;20057;-80
2022/05/13 14:04:12;;;;;;;8.93;3.38;;;;;;;;;;5016463;28;20038;-82
2022/05/13 14:06:39;;;;;;;9.38;3.53;;;;;;;;;;5027131;28;20471;-80
2022/05/13 14:09:05;;;;;;;10.07;3.35;;;;;;;;;;5013812;28;20564;-81
2022/05/13 14:11:35;;;;;;;10.50;3.47;;;;;;;;;;5010038;28;20042;-80
2022/05/13 14:14:03;;;;;;;9.07;3.42;;;;;;;;;;5014470;28;20136;-79
2022/05/13 14:16:30;;;;;;;10.60;3.60;;;;;;;;;;5030061;28;20042;-80
2022/05/13 14:19:04;;;;;;;8.20;3.38;;;;;;;;;;5009911;28;20438;-80
2022/05/13 14:21:30;;;;;;;10.18;3.55;;;;;;;;;;5013985;28;20033;-80
2022/05/13 14:24:01;;;;;;;9.45;3.38;;;;;;;;;;5018281;28;20062;-80
2022/05/13 14:26:28;;;;;;;7.90;3.50;;;;;;;;;;5024814;28;20079;-81
2022/05/13 14:28:54;;;;;;;6.00;3.30;;;;;;;;;;5017705;28;20132;-87
2022/05/13 14:31:23;;;;;;;8.57;3.10;;;;;;;;;;4996720;28;20051;-83
2022/05/13 14:33:53;;;;;;;7.63;3.20;;;;;;;;;;5004061;28;20041;-82
2022/05/13 14:36:31;;;;;;;10.10;3.10;;;;;;;;;;5028355;28;20128;-81
2022/05/13 14:42:06;;;;;;;7.18;3.65;;;;;;;;;;4975074;28;20061;-83
2022/05/13 14:44:36;;;;;;;9.23;3.42;;;;;;;;;;5014110;28;20049;-83
2022/05/13 14:47:04;;;;;;;9.80;3.30;;;;;;;;;;5026976;28;20396;-85
2022/05/13 14:49:45;;;;;;;8.07;3.13;;;;;;;;;;5009075;28;20041;-82
2022/05/13 14:52:20;;;;;;;7.78;2.97;;;;;;;;;;5018166;28;20052;-81
2022/05/13 14:54:46;;;;;;;8.13;3.17;;;;;;;;;;5016364;28;20081;-80
2022/05/13 14:57:17;;;;;;;5.93;2.80;;;;;;;;;;4996444;28;20160;-82
2022/05/13 15:00:02;;;;;;;9.50;3.30;;;;;;;;;;5020566;28;20398;-81
2022/05/13 15:02:28;;;;;;;7.05;3.20;;;;;;;;;;5006996;28;20049;-81
2022/05/13 15:04:56;;;;;;;7.53;3.65;;;;;;;;;;5013548;28;20053;-81
2022/05/13 15:07:37;;;;;;;8.13;3.35;;;;;;;;;;5005055;28;20057;-81
2022/05/13 15:10:03;;;;;;;7.68;2.97;;;;;;;;;;5018520;28;20041;-80
2022/05/13 15:12:29;;;;;;;9.02;3.47;;;;;;;;;;5025809;28;20046;-80
2022/05/13 15:14:56;;;;;;;10.80;3.45;;;;;;;;;;5005420;28;20064;-80
2022/05/13 15:17:24;;;;;;;6.80;3.22;;;;;;;;;;5009646;28;20048;-80
2022/05/13 15:19:50;;;;;;;8.98;3.67;;;;;;;;;;5008615;28;20382;-81
2022/05/13 15:22:23;;;;;;;9.10;3.15;;;;;;;;;;5019174;28;20050;-83
2022/05/13 15:24:49;;;;;;;;;;;;;;;;;;5011844;28;20050;-82